Список аэропортов
Фактическая погода:

26 апреля, 11:50
Температура: +26°C (+26.0*)
Ветер: восточный 3 м/с
Давление: *760 мм
Без существ. явл.
Время (МСК)Темп. СВетерВлажностьДавлениеОблачностьОсадки
09:00+20СВ, 3 м/с49%1013 гПаясно
10:00+23СВ, 4 м/с36%1013 гПаясно
11:00+25СВ, 4 м/с30%1013 гПаясно
12:00+26СВ, 4 м/с28%1013 гПаясно
13:00+27СВ, 4 м/с29%1013 гПаясно
14:00+27СВ, 5 м/с30%1012 гПаясно
15:00+28СВ, 5 м/с32%1012 гПаясно
16:00+27СВ, 5 м/с36%1011 гПаясно
17:00+26СВ, 5 м/с38%1011 гПаясно
18:00+24СВ, 3 м/с42%1011 гПамалооблачно
19:00+23СВ, 2 м/с47%1011 гПаясно
20:00+22СВ, 2 м/с54%1011 гПаясно
21:00+20С, 2 м/с62%1012 гПаясно
22:00+19С, 1 м/с69%1012 гПаясно
23:00+18СЗ, 2 м/с71%1012 гПаясно
27 апреля
00:00+17СЗ, 2 м/с70%1012 гПаясно
01:00+17СЗ, 2 м/с66%1012 гПаясно
02:00+16СЗ, 2 м/с62%1012 гПаясно
03:00+16СЗ, 2 м/с59%1012 гПаясно
04:00+16СЗ, 2 м/с59%1011 гПаясно
05:00+15СЗ, 2 м/с59%1011 гПаясно
06:00+15СЗ, 2 м/с62%1012 гПаясно
07:00+15СЗ, 2 м/с62%1012 гПаясно
08:00+18СЗ, 2 м/с52%1012 гПаясно
09:00+22С, 3 м/с42%1012 гПаясно
10:00+25С, 4 м/с35%1012 гПаясно
11:00+26СВ, 5 м/с33%1013 гПаясно
12:00+26СВ, 5 м/с33%1013 гПаясно
13:00+27СВ, 5 м/с33%1013 гПаясно
14:00+28СВ, 5 м/с33%1013 гПаясно
15:00+27СВ, 6 м/с33%1013 гПаясно
16:00+27СВ, 6 м/с33%1012 гПаясно
17:00+27СВ, 6 м/с33%1012 гПаясно
18:00+26СВ, 5 м/с35%1012 гПаясно
19:00+25СВ, 5 м/с38%1012 гПаясно
20:00+23СВ, 4 м/с41%1013 гПаясно
21:00+22С, 3 м/с44%1013 гПаясно
22:00+21С, 3 м/с44%1014 гПаясно
23:00+21С, 3 м/с45%1014 гПаясно
28 апреля
00:00+20С, 3 м/с46%1014 гПаясно
01:00+20С, 4 м/с47%1014 гПаясно
02:00+20С, 5 м/с47%1014 гПаясно
03:00+20С, 5 м/с50%1013 гПаясно
04:00+20С, 5 м/с54%1013 гПаясно
05:00+20С, 5 м/с53%1013 гПаясно
06:00+20С, 6 м/с51%1013 гПаясно
07:00+20С, 6 м/с52%1013 гПаясно
08:00+20С, 7 м/с53%1014 гПаясно
09:00+21СВ, 8 м/с53%1014 гПаясно